createdAt,value
2018-05-08T00:01:46.540Z,9.30
2018-05-08T00:04:14.738Z,9.10
2018-05-08T00:06:42.845Z,9.00
2018-05-08T00:09:10.998Z,8.90
2018-05-08T00:11:39.067Z,8.90
2018-05-08T00:14:07.144Z,8.90
2018-05-08T00:16:36.025Z,9.10
2018-05-08T00:19:04.181Z,9.00
2018-05-08T00:21:32.246Z,8.90
2018-05-08T00:24:00.334Z,8.80
2018-05-08T00:26:28.431Z,8.60
2018-05-08T00:28:56.552Z,8.60
2018-05-08T00:31:25.429Z,8.50
2018-05-08T00:33:53.569Z,8.40
2018-05-08T00:36:21.664Z,8.40
2018-05-08T00:38:49.809Z,8.40
2018-05-08T00:41:17.883Z,8.40
2018-05-08T00:43:45.978Z,8.40
2018-05-08T00:46:14.817Z,8.20
2018-05-08T00:48:42.938Z,8.20
2018-05-08T00:51:11.116Z,8.10
2018-05-08T00:53:39.128Z,8.00
2018-05-08T00:56:07.232Z,8.00
2018-05-08T00:58:36.094Z,8.10
2018-05-08T01:01:04.170Z,8.00
2018-05-08T01:03:32.289Z,7.90
2018-05-08T01:06:01.884Z,7.90
2018-05-08T01:08:29.969Z,7.90
2018-05-08T01:10:58.046Z,8.00
2018-05-08T01:13:26.182Z,7.80
2018-05-08T01:15:55.117Z,7.60
2018-05-08T01:18:23.223Z,7.60
2018-05-08T01:20:51.321Z,7.60
2018-05-08T01:23:19.421Z,7.50
2018-05-08T01:25:47.533Z,7.50
2018-05-08T01:28:16.395Z,7.40
2018-05-08T01:30:44.544Z,7.40
2018-05-08T01:33:12.637Z,7.30
2018-05-08T01:35:40.723Z,7.30
2018-05-08T01:38:08.830Z,7.30
2018-05-08T01:40:36.930Z,7.30
2018-05-08T01:43:05.017Z,7.20
2018-05-08T01:45:33.122Z,7.10
2018-05-08T01:48:01.215Z,7.20
2018-05-08T01:50:30.096Z,7.10
2018-05-08T01:52:58.215Z,7.10
2018-05-08T01:55:27.090Z,7.20
2018-05-08T01:57:55.189Z,7.10
2018-05-08T02:00:24.095Z,7.20
2018-05-08T02:02:52.960Z,7.40
2018-05-08T02:05:21.071Z,7.40
2018-05-08T02:07:49.201Z,7.40
2018-05-08T02:10:17.397Z,7.60
2018-05-08T02:12:45.508Z,7.30
2018-05-08T02:15:13.630Z,7.30
2018-05-08T02:17:42.548Z,7.10
2018-05-08T02:20:10.673Z,7.10
2018-05-08T02:22:38.774Z,6.90
2018-05-08T02:25:06.869Z,6.90
2018-05-08T02:27:34.970Z,6.90
2018-05-08T02:30:03.872Z,6.70
2018-05-08T02:32:32.742Z,6.90
2018-05-08T02:35:00.854Z,6.80
2018-05-08T02:37:28.949Z,6.70
2018-05-08T02:39:57.867Z,6.70
2018-05-08T02:42:25.989Z,6.70
2018-05-08T02:44:54.090Z,6.60
2018-05-08T02:47:22.196Z,6.60
2018-05-08T02:49:50.277Z,6.60
2018-05-08T02:52:18.359Z,6.50
2018-05-08T02:54:46.463Z,6.50
2018-05-08T02:57:15.322Z,6.30
2018-05-08T02:59:43.413Z,6.20
2018-05-08T03:02:11.513Z,6.40
2018-05-08T03:04:41.126Z,6.20
2018-05-08T03:07:09.213Z,6.20
2018-05-08T03:09:37.314Z,6.10
2018-05-08T03:12:05.392Z,6.00
2018-05-08T03:14:33.462Z,6.10
2018-05-08T03:17:01.584Z,6.20
2018-05-08T03:19:30.446Z,6.10
2018-05-08T03:21:58.536Z,6.10
2018-05-08T03:24:26.642Z,6.10
2018-05-08T03:26:54.726Z,6.00
2018-05-08T03:29:23.629Z,5.90
2018-05-08T03:31:52.499Z,6.00
2018-05-08T03:34:20.650Z,6.00
2018-05-08T03:36:48.733Z,6.10
2018-05-08T03:39:16.862Z,6.40
2018-05-08T03:41:44.953Z,6.50
2018-05-08T03:44:13.067Z,6.30
2018-05-08T03:46:41.925Z,6.20
2018-05-08T03:49:10.048Z,6.20
2018-05-08T03:51:38.935Z,6.30
2018-05-08T03:54:07.150Z,6.30
2018-05-08T03:56:35.972Z,6.20
2018-05-08T03:59:04.093Z,6.30
2018-05-08T04:01:43.928Z,6.30
2018-05-08T04:04:23.876Z,6.20
2018-05-08T04:07:05.653Z,6.40
2018-05-08T04:09:33.781Z,6.20
2018-05-08T04:12:01.890Z,6.20
2018-05-08T04:14:30.061Z,6.20
2018-05-08T04:16:58.158Z,6.20
2018-05-08T04:19:26.292Z,6.30
2018-05-08T04:21:55.152Z,6.40
2018-05-08T04:24:23.251Z,6.40
2018-05-08T04:26:51.408Z,6.80
2018-05-08T04:29:19.499Z,7.20
2018-05-08T04:31:47.591Z,7.70
2018-05-08T04:34:15.683Z,8.30
2018-05-08T04:36:43.810Z,8.70
2018-05-08T04:39:11.822Z,9.20
2018-05-08T04:41:40.041Z,9.60
2018-05-08T04:44:08.104Z,9.90
2018-05-08T04:46:36.193Z,10.30
2018-05-08T04:49:04.271Z,10.70
2018-05-08T04:51:32.348Z,11.00
2018-05-08T04:54:00.436Z,11.60
2018-05-08T04:56:28.603Z,11.40
2018-05-08T04:58:56.694Z,11.70
2018-05-08T05:01:24.799Z,12.10
2018-05-08T05:03:52.903Z,12.80
2018-05-08T05:06:20.994Z,12.90
2018-05-08T05:08:49.103Z,13.60
2018-05-08T05:11:17.962Z,14.60
2018-05-08T05:13:46.064Z,14.60
2018-05-08T05:16:14.204Z,15.00
2018-05-08T05:18:42.313Z,15.10
2018-05-08T05:21:10.485Z,14.50
2018-05-08T05:23:38.556Z,15.50
2018-05-08T05:26:06.651Z,15.80
2018-05-08T05:28:34.739Z,16.10
2018-05-08T05:31:02.806Z,16.40
2018-05-08T05:33:30.893Z,16.40
2018-05-08T05:35:59.036Z,16.80
2018-05-08T05:38:27.132Z,16.80
2018-05-08T05:40:55.975Z,18.00
2018-05-08T05:43:24.044Z,18.00
2018-05-08T05:45:52.115Z,18.20
2018-05-08T05:48:20.963Z,18.90
2018-05-08T05:50:49.064Z,18.90
2018-05-08T05:53:17.170Z,19.40
2018-05-08T05:55:45.265Z,19.20
2018-05-08T05:58:14.132Z,19.80
2018-05-08T06:00:42.223Z,19.70
2018-05-08T06:03:10.319Z,20.20
2018-05-08T06:05:38.422Z,20.10
2018-05-08T06:08:07.284Z,20.30
2018-05-08T06:10:35.384Z,20.30
2018-05-08T06:13:03.464Z,20.40
2018-05-08T06:15:31.543Z,20.80
2018-05-08T06:17:59.611Z,21.20
2018-05-08T06:20:27.790Z,22.50
2018-05-08T06:22:55.823Z,22.60
2018-05-08T06:25:23.907Z,23.20
2018-05-08T06:27:51.996Z,22.60
2018-05-08T06:30:20.855Z,23.40
2018-05-08T06:32:49.055Z,23.40
2018-05-08T06:35:17.126Z,23.10
2018-05-08T06:37:45.241Z,22.30
2018-05-08T06:40:13.325Z,22.60
2018-05-08T06:42:41.420Z,23.00
2018-05-08T06:45:09.512Z,22.50
2018-05-08T06:47:38.388Z,23.50
2018-05-08T06:50:06.470Z,23.40
2018-05-08T06:52:34.591Z,22.90
2018-05-08T06:55:03.429Z,23.00
2018-05-08T06:57:31.506Z,23.00
2018-05-08T06:59:59.589Z,22.90
2018-05-08T07:02:27.675Z,22.60
2018-05-08T07:04:55.809Z,23.70
2018-05-08T07:07:23.913Z,24.40
2018-05-08T07:09:52.775Z,23.10
2018-05-08T07:12:20.866Z,23.00
2018-05-08T07:14:48.985Z,23.00
2018-05-08T07:17:17.880Z,23.30
2018-05-08T07:19:45.972Z,23.20
2018-05-08T07:22:14.840Z,23.90
2018-05-08T07:24:42.943Z,23.90
2018-05-08T07:27:11.030Z,23.90
2018-05-08T07:29:39.874Z,23.90
2018-05-08T07:32:07.951Z,23.90
2018-05-08T07:34:36.801Z,23.80
2018-05-08T07:37:04.897Z,23.80
2018-05-08T07:39:33.050Z,23.90
2018-05-08T07:42:01.174Z,24.20
2018-05-08T07:44:29.285Z,25.00
2018-05-08T07:46:58.147Z,25.50
2018-05-08T07:49:26.256Z,25.20
2018-05-08T07:51:54.461Z,25.40
2018-05-08T07:54:23.288Z,26.10
2018-05-08T07:56:51.345Z,26.10
2018-05-08T07:59:20.211Z,25.10
2018-05-08T08:01:48.316Z,24.90
2018-05-08T08:04:16.425Z,24.50
2018-05-08T08:06:45.279Z,25.80
2018-05-08T08:09:13.379Z,25.80
2018-05-08T08:11:41.514Z,25.30
2018-05-08T08:14:09.615Z,25.40
2018-05-08T08:16:37.686Z,25.60
2018-05-08T08:19:05.785Z,25.10
2018-05-08T08:21:33.895Z,24.90
2018-05-08T08:24:02.014Z,26.20
2018-05-08T08:26:30.874Z,27.10
2018-05-08T08:28:58.962Z,27.00
2018-05-08T08:31:27.039Z,27.60
2018-05-08T08:33:55.237Z,25.70
2018-05-08T08:36:23.318Z,26.30
2018-05-08T08:38:51.398Z,25.70
2018-05-08T08:41:19.474Z,26.30
2018-05-08T08:43:47.581Z,24.90
2018-05-08T08:46:15.672Z,24.40
2018-05-08T08:48:43.800Z,24.10
2018-05-08T08:51:11.883Z,24.60
2018-05-08T08:53:39.988Z,25.90
2018-05-08T08:56:08.118Z,25.20
2018-05-08T08:58:36.195Z,24.60
2018-05-08T09:01:04.278Z,25.80
2018-05-08T09:03:32.362Z,25.70
2018-05-08T09:06:01.192Z,25.20
2018-05-08T09:08:30.061Z,25.70
2018-05-08T09:10:58.129Z,25.70
2018-05-08T09:13:26.243Z,25.40
2018-05-08T09:15:54.336Z,25.60
2018-05-08T09:18:23.242Z,26.40
2018-05-08T09:20:51.285Z,26.40
2018-05-08T09:23:19.364Z,25.90
2018-05-08T09:25:47.432Z,26.00
2018-05-08T09:28:15.509Z,26.30
2018-05-08T09:30:43.617Z,27.10
2018-05-08T09:33:11.704Z,26.50
2018-05-08T09:35:39.834Z,26.70
2018-05-08T09:38:07.920Z,26.00
2018-05-08T09:40:36.810Z,25.50
2018-05-08T09:43:04.924Z,25.10
2018-05-08T09:45:33.793Z,24.20
2018-05-08T09:48:01.864Z,24.20
2018-05-08T09:50:29.980Z,26.10
2018-05-08T09:52:58.853Z,25.60
2018-05-08T09:55:26.943Z,25.60
2018-05-08T09:57:55.036Z,25.40
2018-05-08T10:00:23.135Z,26.20
2018-05-08T10:02:51.240Z,26.00
2018-05-08T10:05:20.106Z,26.40
2018-05-08T10:07:48.182Z,26.40
2018-05-08T10:10:16.324Z,25.60
2018-05-08T10:12:44.385Z,25.00
2018-05-08T10:15:13.247Z,25.40
2018-05-08T10:17:41.332Z,25.30
2018-05-08T10:20:09.452Z,25.70
2018-05-08T10:22:37.508Z,25.50
2018-05-08T10:25:05.619Z,26.60
2018-05-08T10:27:33.741Z,27.20
2018-05-08T10:30:01.871Z,25.90
2018-05-08T10:32:29.990Z,27.40
2018-05-08T10:34:58.853Z,26.00
2018-05-08T10:37:27.056Z,26.00
2018-05-08T10:39:55.153Z,25.90
2018-05-08T10:42:23.288Z,26.60
2018-05-08T10:44:51.343Z,27.30
2018-05-08T10:47:19.422Z,26.80
2018-05-08T10:49:48.318Z,26.90
2018-05-08T10:52:16.395Z,26.90
2018-05-08T10:54:44.497Z,27.30
2018-05-08T10:57:13.330Z,27.00
2018-05-08T10:59:41.449Z,27.00
2018-05-08T11:02:09.494Z,25.60
2018-05-08T11:04:37.623Z,26.70
2018-05-08T11:07:05.742Z,27.40
2018-05-08T11:09:33.806Z,27.40
2018-05-08T11:12:01.878Z,26.90
2018-05-08T11:14:30.749Z,27.00
2018-05-08T11:16:58.869Z,27.00
2018-05-08T11:19:26.951Z,26.60
2018-05-08T11:21:55.041Z,26.80
2018-05-08T11:24:23.214Z,27.50
2018-05-08T11:26:51.353Z,27.80
2018-05-08T11:29:19.431Z,28.30
2018-05-08T11:31:47.551Z,26.70
2018-05-08T11:34:15.737Z,27.10
2018-05-08T11:36:43.822Z,28.00
2018-05-08T11:39:11.963Z,28.40
2018-05-08T11:41:40.022Z,27.10
2018-05-08T11:44:08.143Z,28.60
2018-05-08T11:46:36.971Z,26.80
2018-05-08T11:49:05.092Z,26.80
2018-05-08T11:51:33.996Z,27.50
2018-05-08T11:54:02.168Z,26.50
2018-05-08T11:56:30.241Z,26.50
2018-05-08T11:58:58.396Z,27.10
2018-05-08T12:01:27.255Z,27.50
2018-05-08T12:03:55.373Z,27.10
2018-05-08T12:06:23.484Z,26.10
2018-05-08T12:08:51.581Z,26.20
2018-05-08T12:11:19.704Z,26.60
2018-05-08T12:13:47.797Z,26.70
2018-05-08T12:16:15.880Z,27.40
2018-05-08T12:18:44.744Z,29.00
2018-05-08T12:21:12.840Z,29.00
2018-05-08T12:23:40.917Z,26.70
2018-05-08T12:26:09.011Z,27.40
2018-05-08T12:28:37.090Z,27.10
2018-05-08T12:31:05.172Z,28.50
2018-05-08T12:33:33.226Z,27.30
2018-05-08T12:36:01.325Z,27.00
2018-05-08T12:38:29.425Z,26.30
2018-05-08T12:40:57.525Z,26.70
2018-05-08T12:43:25.656Z,26.60
2018-05-08T12:45:53.790Z,27.20
2018-05-08T12:48:21.885Z,28.70
2018-05-08T12:50:50.000Z,27.30
2018-05-08T12:53:18.853Z,27.30
2018-05-08T12:55:46.951Z,27.20
2018-05-08T12:58:15.101Z,27.20
2018-05-08T13:00:43.204Z,26.80
2018-05-08T13:03:11.320Z,27.70
2018-05-08T13:05:39.427Z,28.00
2018-05-08T13:08:07.526Z,28.70
2018-05-08T13:10:35.667Z,29.50
2018-05-08T13:13:03.755Z,28.50
2018-05-08T13:15:31.861Z,29.00
2018-05-08T13:17:59.921Z,28.60
2018-05-08T13:20:28.015Z,27.90
2018-05-08T13:22:56.113Z,28.30
2018-05-08T13:25:24.225Z,27.10
2018-05-08T13:27:52.283Z,28.60
2018-05-08T13:30:21.139Z,28.70
2018-05-08T13:32:49.227Z,28.70
2018-05-08T13:35:17.332Z,29.90
2018-05-08T13:37:45.419Z,29.10
2018-05-08T13:40:13.534Z,29.30
2018-05-08T13:42:41.552Z,28.10
2018-05-08T13:45:09.628Z,28.10
2018-05-08T13:47:37.713Z,28.70
2018-05-08T13:50:05.855Z,29.50
2018-05-08T13:52:34.713Z,28.30
2018-05-08T13:55:02.901Z,28.30
2018-05-08T13:57:30.885Z,27.10
2018-05-08T13:59:58.956Z,27.90
2018-05-08T14:02:27.052Z,27.60
2018-05-08T14:04:55.130Z,28.20
2018-05-08T14:07:23.247Z,28.50
2018-05-08T14:09:51.338Z,28.10
2018-05-08T14:12:19.462Z,28.90
2018-05-08T14:14:47.559Z,28.50
2018-05-08T14:17:15.694Z,28.60
2018-05-08T14:19:43.795Z,29.20
2018-05-08T14:22:12.674Z,28.40
2018-05-08T14:24:40.754Z,28.60
2018-05-08T14:27:08.840Z,28.80
2018-05-08T14:29:36.936Z,29.10
2018-05-08T14:32:05.051Z,27.50
2018-05-08T14:34:33.152Z,28.30
2018-05-08T14:37:01.341Z,27.50
2018-05-08T14:39:29.330Z,26.90
2018-05-08T14:41:57.404Z,27.90
2018-05-08T14:44:25.560Z,28.10
2018-05-08T14:46:53.682Z,27.30
2018-05-08T14:49:21.779Z,26.40
2018-05-08T14:51:49.857Z,26.90
2018-05-08T14:54:17.949Z,26.50
2018-05-08T14:56:46.107Z,26.60
2018-05-08T14:59:14.936Z,26.50
2018-05-08T15:01:43.032Z,26.50
2018-05-08T15:04:11.125Z,26.60
2018-05-08T15:06:39.235Z,26.10
2018-05-08T15:09:07.326Z,25.70
2018-05-08T15:11:35.387Z,25.80
2018-05-08T15:14:03.475Z,25.60
2018-05-08T15:16:31.541Z,25.10
2018-05-08T15:18:59.625Z,25.00
2018-05-08T15:21:27.713Z,24.80
2018-05-08T15:23:55.793Z,24.80
2018-05-08T15:26:23.901Z,24.80
2018-05-08T15:28:51.991Z,24.80
2018-05-08T15:31:20.092Z,24.90
2018-05-08T15:33:48.164Z,24.80
2018-05-08T15:36:16.272Z,24.80
2018-05-08T15:38:45.131Z,24.80
2018-05-08T15:41:13.223Z,24.70
2018-05-08T15:43:41.304Z,24.80
2018-05-08T15:46:09.387Z,24.80
2018-05-08T15:48:37.486Z,24.70
2018-05-08T15:51:05.592Z,24.60
2018-05-08T15:53:33.683Z,24.60
2018-05-08T15:56:02.514Z,24.40
2018-05-08T15:58:30.603Z,24.40
2018-05-08T16:00:58.674Z,24.40
2018-05-08T16:03:26.785Z,24.30
2018-05-08T16:05:54.910Z,24.40
2018-05-08T16:08:23.921Z,24.40
2018-05-08T16:10:52.802Z,24.40
2018-05-08T16:13:20.900Z,24.40
2018-05-08T16:15:48.968Z,24.40
2018-05-08T16:18:17.072Z,24.50
2018-05-08T16:20:45.166Z,24.40
2018-05-08T16:23:14.043Z,24.30
2018-05-08T16:25:42.139Z,24.30
2018-05-08T16:28:10.242Z,24.30
2018-05-08T16:30:39.108Z,24.30
2018-05-08T16:33:07.212Z,24.30
2018-05-08T16:35:35.319Z,24.10
2018-05-08T16:38:04.179Z,24.10
2018-05-08T16:40:32.273Z,24.00
2018-05-08T16:43:00.401Z,24.00
2018-05-08T16:45:28.507Z,23.90
2018-05-08T16:47:56.606Z,23.90
2018-05-08T16:50:24.658Z,23.90
2018-05-08T16:52:52.768Z,23.80
2018-05-08T16:55:20.860Z,23.90
2018-05-08T16:57:48.966Z,23.80
2018-05-08T17:00:17.088Z,23.90
2018-05-08T17:02:45.974Z,23.90
2018-05-08T17:05:14.080Z,23.90
2018-05-08T17:07:42.957Z,23.60
2018-05-08T17:10:11.093Z,23.60
2018-05-08T17:12:39.950Z,23.60
2018-05-08T17:15:08.059Z,23.60
2018-05-08T17:17:37.028Z,23.40
2018-05-08T17:20:05.028Z,23.40
2018-05-08T17:22:33.903Z,23.40
2018-05-08T17:25:02.043Z,23.40
2018-05-08T17:27:30.133Z,23.40
2018-05-08T17:29:58.250Z,23.30
2018-05-08T17:32:26.369Z,23.20
2018-05-08T17:34:55.602Z,23.30
2018-05-08T17:37:23.700Z,23.30
2018-05-08T17:39:51.843Z,23.20
2018-05-08T17:42:19.916Z,23.10
2018-05-08T17:44:48.010Z,23.10
2018-05-08T17:47:16.140Z,23.10
2018-05-08T17:49:44.240Z,23.00
2018-05-08T17:52:12.356Z,23.00
2018-05-08T17:54:40.427Z,22.80
2018-05-08T17:57:08.529Z,22.70
2018-05-08T17:59:36.650Z,22.60
2018-05-08T18:02:05.516Z,22.60
2018-05-08T18:04:33.635Z,22.60
2018-05-08T18:07:02.504Z,22.50
2018-05-08T18:09:30.610Z,22.40
2018-05-08T18:11:58.711Z,22.30
2018-05-08T18:14:27.604Z,22.20
2018-05-08T18:16:56.501Z,21.90
2018-05-08T18:19:25.395Z,21.80
2018-05-08T18:21:53.500Z,21.70
2018-05-08T18:24:22.350Z,21.80
2018-05-08T18:26:50.471Z,21.80
2018-05-08T18:29:18.561Z,21.80
2018-05-08T18:31:47.435Z,21.40
2018-05-08T18:34:15.537Z,21.30
2018-05-08T18:36:43.640Z,21.30
2018-05-08T18:39:12.592Z,20.90
2018-05-08T18:41:40.837Z,20.90
2018-05-08T18:44:08.979Z,20.90
2018-05-08T18:46:37.098Z,21.00
2018-05-08T18:49:05.268Z,21.00
2018-05-08T18:51:34.147Z,20.70
2018-05-08T18:54:02.263Z,20.70
2018-05-08T18:56:30.402Z,20.70
2018-05-08T18:58:58.524Z,20.60
2018-05-08T19:01:26.601Z,20.50
2018-05-08T19:03:54.721Z,20.30
2018-05-08T19:06:23.626Z,20.10
2018-05-08T19:08:51.747Z,20.10
2018-05-08T19:11:25.622Z,20.20
2018-05-08T19:13:54.471Z,20.10
2018-05-08T19:16:22.623Z,20.10
2018-05-08T19:18:57.086Z,19.80
2018-05-08T19:21:25.193Z,19.70
2018-05-08T19:23:59.065Z,19.90
2018-05-08T19:26:28.056Z,19.40
2018-05-08T19:29:01.734Z,19.40
2018-05-08T19:31:29.831Z,19.20
2018-05-08T19:33:57.919Z,19.20
2018-05-08T19:36:31.617Z,19.10
2018-05-08T19:38:59.917Z,19.10
2018-05-08T19:41:28.964Z,18.80
2018-05-08T19:43:57.829Z,18.50
2018-05-08T19:46:26.052Z,18.50
2018-05-08T19:48:54.962Z,18.40
2018-05-08T19:51:23.860Z,18.20
2018-05-08T19:53:52.752Z,17.90
2018-05-08T19:56:20.871Z,17.90
2018-05-08T19:58:49.000Z,17.80
2018-05-08T20:01:17.532Z,17.80
2018-05-08T20:03:45.659Z,17.50
2018-05-08T20:06:13.782Z,17.40
2018-05-08T20:08:42.690Z,16.80
2018-05-08T20:11:10.735Z,16.70
2018-05-08T20:13:38.833Z,16.50
2018-05-08T20:16:06.933Z,16.20
2018-05-08T20:18:35.015Z,15.90
2018-05-08T20:21:03.184Z,15.80
2018-05-08T20:23:31.292Z,15.50
2018-05-08T20:26:00.973Z,15.10
2018-05-08T20:28:29.085Z,15.10
2018-05-08T20:30:57.198Z,14.90
2018-05-08T20:33:26.061Z,14.60
2018-05-08T20:35:54.218Z,14.60
2018-05-08T20:38:22.456Z,14.60
2018-05-08T20:40:50.611Z,14.50
2018-05-08T20:43:18.742Z,14.40
2018-05-08T20:45:46.842Z,14.10
2018-05-08T20:48:15.709Z,13.90
2018-05-08T20:50:43.792Z,13.90
2018-05-08T20:53:11.887Z,13.80
2018-05-08T20:55:40.032Z,13.70
2018-05-08T20:58:08.044Z,13.50
2018-05-08T21:00:36.200Z,13.50
2018-05-08T21:03:04.294Z,13.40
2018-05-08T21:05:32.437Z,13.20
2018-05-08T21:08:01.298Z,13.00
2018-05-08T21:10:29.394Z,13.00
2018-05-08T21:12:57.490Z,12.90
2018-05-08T21:15:25.634Z,12.90
2018-05-08T21:17:53.784Z,12.80
2018-05-08T21:20:21.844Z,12.70
2018-05-08T21:22:50.009Z,12.60
2018-05-08T21:25:18.108Z,12.60
2018-05-08T21:27:51.969Z,12.50
2018-05-08T21:30:26.637Z,12.40
2018-05-08T21:32:54.656Z,12.30
2018-05-08T21:35:22.787Z,12.30
2018-05-08T21:37:50.914Z,12.20
2018-05-08T21:40:19.055Z,12.10
2018-05-08T21:42:47.151Z,12.00
2018-05-08T21:45:15.246Z,12.00
2018-05-08T21:47:43.367Z,11.90
2018-05-08T21:50:11.469Z,11.80
2018-05-08T21:52:39.596Z,11.80
2018-05-08T21:55:08.427Z,11.80
2018-05-08T21:57:36.520Z,11.70
2018-05-08T22:00:04.647Z,11.70
2018-05-08T22:02:32.749Z,11.70
2018-05-08T22:05:00.844Z,11.60
2018-05-08T22:07:28.941Z,11.60
2018-05-08T22:09:57.040Z,11.60
2018-05-08T22:12:25.178Z,11.60
2018-05-08T22:14:53.296Z,11.60
2018-05-08T22:17:21.405Z,11.60
2018-05-08T22:19:49.500Z,11.60
2018-05-08T22:22:18.380Z,11.90
2018-05-08T22:24:46.480Z,11.90
2018-05-08T22:27:14.581Z,11.70
2018-05-08T22:29:43.468Z,11.60
2018-05-08T22:32:11.609Z,11.60
2018-05-08T22:34:39.712Z,11.60
2018-05-08T22:37:07.810Z,11.50
2018-05-08T22:39:35.930Z,11.40
2018-05-08T22:42:04.825Z,11.40
2018-05-08T22:44:33.727Z,11.30
2018-05-08T22:47:02.603Z,11.40
2018-05-08T22:49:30.691Z,11.30
2018-05-08T22:51:58.847Z,12.00
2018-05-08T22:54:26.986Z,12.30
2018-05-08T22:56:55.838Z,12.60
2018-05-08T22:59:23.946Z,12.60
2018-05-08T23:01:52.065Z,12.50
2018-05-08T23:04:20.935Z,12.60
2018-05-08T23:06:49.035Z,12.60
2018-05-08T23:09:17.120Z,12.50
2018-05-08T23:11:45.223Z,12.30
2018-05-08T23:14:14.102Z,12.30
2018-05-08T23:16:42.188Z,12.30
2018-05-08T23:19:10.319Z,12.20
2018-05-08T23:21:38.427Z,12.00
2018-05-08T23:24:06.519Z,11.80
2018-05-08T23:26:35.441Z,11.60
2018-05-08T23:29:03.548Z,11.60
2018-05-08T23:31:32.421Z,11.40
2018-05-08T23:34:00.514Z,11.30
2018-05-08T23:36:28.634Z,11.20
2018-05-08T23:38:57.559Z,11.20
2018-05-08T23:41:25.651Z,11.10
2018-05-08T23:43:53.788Z,11.00
2018-05-08T23:46:22.996Z,10.90
2018-05-08T23:48:51.943Z,10.80
2018-05-08T23:51:20.030Z,10.70
2018-05-08T23:53:48.132Z,10.60
2018-05-08T23:56:16.233Z,10.50
2018-05-08T23:58:44.336Z,10.50
